Time;durP1;ratioP1;P1;durP2;ratioP2;P2;SDS_P1;SDS_P2;PMS_P1;PMS_P2;Temp;Humidity;BMP_temperature;BMP_pressure;BME280_temperature;BME280_humidity;BME280_pressure;Samples;Min_cycle;Max_cycle;Signal;HPM_P1;HPM_P2
2022/03/15 00:01:36;;;;;;;18.55;14.70;;;;;;;;;;5095976;28;20292;-63
2022/03/15 00:04:04;;;;;;;18.85;14.32;;;;;;;;;;5096107;28;20204;-64
2022/03/15 00:06:32;;;;;;;21.00;14.73;;;;;;;;;;5096174;28;20286;-64
2022/03/15 00:08:59;;;;;;;19.10;13.60;;;;;;;;;;5096259;28;20233;-65
2022/03/15 00:11:26;;;;;;;20.20;14.32;;;;;;;;;;5096074;28;20283;-65
2022/03/15 00:13:55;;;;;;;17.45;14.70;;;;;;;;;;5095936;28;20558;-65
2022/03/15 00:16:22;;;;;;;24.98;14.63;;;;;;;;;;5096187;28;20195;-64
2022/03/15 00:18:50;;;;;;;21.75;13.60;;;;;;;;;;5095839;28;20219;-65
2022/03/15 00:21:19;;;;;;;24.95;15.07;;;;;;;;;;5095888;28;20559;-64
2022/03/15 00:23:46;;;;;;;18.42;13.65;;;;;;;;;;5095521;28;20196;-63
2022/03/15 00:26:13;;;;;;;17.52;14.30;;;;;;;;;;5095510;28;20206;-65
2022/03/15 00:28:40;;;;;;;23.88;14.50;;;;;;;;;;5095386;28;20200;-65
2022/03/15 00:31:09;;;;;;;17.67;15.00;;;;;;;;;;5096000;28;20202;-62
2022/03/15 00:33:38;;;;;;;22.77;15.43;;;;;;;;;;5095567;28;20205;-62
2022/03/15 00:36:06;;;;;;;18.20;13.43;;;;;;;;;;5095376;28;20195;-64
2022/03/15 00:38:34;;;;;;;23.58;14.65;;;;;;;;;;5095340;28;20222;-65
2022/03/15 00:41:01;;;;;;;21.58;15.32;;;;;;;;;;5095592;28;20228;-64
2022/03/15 00:43:29;;;;;;;18.83;15.90;;;;;;;;;;5095424;28;20554;-62
2022/03/15 00:45:56;;;;;;;21.92;15.38;;;;;;;;;;5095108;28;20195;-63
2022/03/15 00:48:25;;;;;;;20.17;14.45;;;;;;;;;;5095427;28;20204;-63
2022/03/15 00:50:52;;;;;;;18.65;14.95;;;;;;;;;;5095550;28;20205;-64
2022/03/15 00:53:19;;;;;;;19.77;13.20;;;;;;;;;;5095265;28;20205;-64
2022/03/15 00:55:46;;;;;;;19.10;14.40;;;;;;;;;;5095518;28;20229;-64
2022/03/15 00:58:13;;;;;;;19.83;14.43;;;;;;;;;;5095079;28;20551;-65
2022/03/15 01:00:44;;;;;;;23.13;13.30;;;;;;;;;;5094760;28;20218;-63
2022/03/15 01:03:11;;;;;;;18.52;14.75;;;;;;;;;;5094766;28;20234;-64
2022/03/15 01:05:40;;;;;;;22.50;14.93;;;;;;;;;;5095487;28;20318;-63
2022/03/15 01:08:07;;;;;;;21.02;14.52;;;;;;;;;;5095116;28;20196;-63
2022/03/15 01:10:35;;;;;;;23.08;15.25;;;;;;;;;;5095171;28;20209;-64
2022/03/15 01:13:02;;;;;;;22.48;14.52;;;;;;;;;;5094816;28;20286;-64
2022/03/15 01:15:35;;;;;;;24.83;14.27;;;;;;;;;;5094584;28;20196;-63
2022/03/15 01:18:02;;;;;;;23.50;15.88;;;;;;;;;;5094857;28;20214;-64
2022/03/15 01:20:29;;;;;;;30.20;15.18;;;;;;;;;;5094321;28;20222;-64
2022/03/15 01:22:58;;;;;;;23.20;14.32;;;;;;;;;;5094338;28;20288;-63
2022/03/15 01:25:25;;;;;;;22.42;16.25;;;;;;;;;;5094268;28;20199;-64
2022/03/15 01:27:53;;;;;;;24.73;15.90;;;;;;;;;;5094711;28;20317;-64
2022/03/15 01:30:20;;;;;;;22.27;14.77;;;;;;;;;;5094532;28;20207;-64
2022/03/15 01:32:47;;;;;;;25.42;15.00;;;;;;;;;;5094561;28;20195;-64
2022/03/15 01:35:14;;;;;;;22.30;15.80;;;;;;;;;;5094450;28;20197;-64
2022/03/15 01:37:42;;;;;;;23.48;14.85;;;;;;;;;;5094551;28;20236;-63
2022/03/15 01:40:11;;;;;;;19.42;14.20;;;;;;;;;;5094385;28;20222;-64
2022/03/15 01:42:39;;;;;;;22.75;14.30;;;;;;;;;;5094564;28;20196;-64
2022/03/15 01:45:06;;;;;;;21.33;14.80;;;;;;;;;;5094426;28;20282;-64
2022/03/15 01:47:34;;;;;;;27.10;17.35;;;;;;;;;;5093919;28;20206;-63
2022/03/15 01:50:01;;;;;;;25.05;15.35;;;;;;;;;;5093429;28;20206;-67
2022/03/15 01:52:28;;;;;;;23.48;15.27;;;;;;;;;;5093912;28;20287;-64
2022/03/15 01:54:55;;;;;;;23.52;15.43;;;;;;;;;;5093485;28;20229;-64
2022/03/15 01:57:24;;;;;;;29.92;15.32;;;;;;;;;;5094881;28;20199;-64
2022/03/15 01:59:52;;;;;;;23.75;16.33;;;;;;;;;;5093868;28;20222;-64
2022/03/15 02:02:19;;;;;;;21.58;15.32;;;;;;;;;;5094349;28;20203;-64
2022/03/15 02:04:46;;;;;;;23.90;14.88;;;;;;;;;;5093637;28;20199;-64
2022/03/15 02:07:15;;;;;;;21.95;14.75;;;;;;;;;;5093691;28;20213;-64
2022/03/15 02:09:42;;;;;;;20.88;14.10;;;;;;;;;;5093809;28;20293;-63
2022/03/15 02:12:10;;;;;;;26.42;16.48;;;;;;;;;;5093571;28;20199;-63
2022/03/15 02:14:38;;;;;;;21.98;15.15;;;;;;;;;;5093817;28;20199;-64
2022/03/15 02:17:06;;;;;;;20.23;15.60;;;;;;;;;;5093826;28;20216;-63
2022/03/15 02:19:33;;;;;;;20.33;16.38;;;;;;;;;;5093676;28;20231;-64
2022/03/15 02:22:02;;;;;;;22.05;14.07;;;;;;;;;;5093474;28;20200;-64
2022/03/15 02:24:29;;;;;;;27.48;15.82;;;;;;;;;;5093255;28;20205;-64
2022/03/15 02:26:56;;;;;;;23.17;16.30;;;;;;;;;;5094044;28;20644;-64
2022/03/15 02:29:23;;;;;;;18.20;14.20;;;;;;;;;;5093624;28;20559;-64
2022/03/15 02:31:51;;;;;;;24.98;15.70;;;;;;;;;;5093788;28;20229;-63
2022/03/15 02:34:18;;;;;;;28.33;14.57;;;;;;;;;;5093227;28;20202;-64
2022/03/15 02:36:46;;;;;;;20.38;14.57;;;;;;;;;;5093593;28;20206;-64
2022/03/15 02:39:15;;;;;;;20.65;16.10;;;;;;;;;;5093371;28;20290;-64
2022/03/15 02:41:42;;;;;;;23.80;16.23;;;;;;;;;;5093237;28;20195;-64
2022/03/15 02:44:09;;;;;;;23.02;16.27;;;;;;;;;;5093238;28;20192;-63
2022/03/15 02:46:39;;;;;;;19.50;14.25;;;;;;;;;;5093419;28;20198;-64
2022/03/15 02:49:06;;;;;;;19.70;15.82;;;;;;;;;;5093113;28;20698;-64
2022/03/15 02:51:34;;;;;;;25.17;15.30;;;;;;;;;;5093411;28;20199;-64
2022/03/15 02:54:02;;;;;;;19.08;15.77;;;;;;;;;;5093616;28;20223;-63
2022/03/15 02:56:33;;;;;;;25.10;17.35;;;;;;;;;;5093051;28;20192;-64
2022/03/15 02:59:00;;;;;;;25.38;15.95;;;;;;;;;;5093050;28;20280;-64
2022/03/15 03:01:27;;;;;;;20.38;15.60;;;;;;;;;;5094305;28;20223;-64
2022/03/15 03:03:54;;;;;;;22.85;16.30;;;;;;;;;;5097347;28;20739;-64
2022/03/15 03:06:22;;;;;;;23.42;16.50;;;;;;;;;;5097291;28;20281;-64
2022/03/15 03:08:49;;;;;;;20.45;16.25;;;;;;;;;;5097249;28;20295;-64
2022/03/15 03:11:16;;;;;;;27.95;16.15;;;;;;;;;;5096712;28;20229;-64
2022/03/15 03:13:47;;;;;;;23.48;16.30;;;;;;;;;;5097117;28;20378;-64
2022/03/15 03:16:15;;;;;;;20.63;15.57;;;;;;;;;;5096728;28;20241;-63
2022/03/15 03:18:43;;;;;;;24.33;15.88;;;;;;;;;;5097081;28;20202;-63
2022/03/15 03:21:10;;;;;;;26.08;15.93;;;;;;;;;;5096878;28;20248;-63
2022/03/15 03:23:38;;;;;;;24.90;16.85;;;;;;;;;;5097003;28;20199;-63
2022/03/15 03:26:05;;;;;;;25.23;15.82;;;;;;;;;;5097002;28;20231;-63
2022/03/15 03:28:36;;;;;;;22.35;16.08;;;;;;;;;;5096645;28;20627;-63
2022/03/15 03:31:05;;;;;;;18.73;15.98;;;;;;;;;;5096485;28;20222;-63
2022/03/15 03:33:32;;;;;;;27.60;16.92;;;;;;;;;;5096813;28;20195;-64
2022/03/15 03:35:59;;;;;;;28.38;16.05;;;;;;;;;;5096698;28;20198;-64
2022/03/15 03:38:26;;;;;;;21.05;16.80;;;;;;;;;;5096702;28;20290;-64
2022/03/15 03:40:54;;;;;;;23.48;16.83;;;;;;;;;;5096542;28;20223;-64
2022/03/15 03:43:21;;;;;;;26.70;17.48;;;;;;;;;;5096338;28;20198;-64
2022/03/15 03:45:49;;;;;;;25.63;16.33;;;;;;;;;;5096754;28;20239;-64
2022/03/15 03:48:19;;;;;;;25.00;16.67;;;;;;;;;;5096442;28;20192;-64
2022/03/15 03:50:48;;;;;;;27.52;17.73;;;;;;;;;;5096342;28;20194;-63
2022/03/15 03:53:16;;;;;;;26.33;18.70;;;;;;;;;;5096373;28;20202;-64
2022/03/15 03:55:43;;;;;;;22.58;17.50;;;;;;;;;;5096698;28;20227;-64
2022/03/15 03:58:11;;;;;;;25.13;17.85;;;;;;;;;;5096290;28;20200;-64
2022/03/15 04:00:38;;;;;;;22.95;16.92;;;;;;;;;;5096269;28;20214;-63
2022/03/15 04:03:06;;;;;;;23.92;17.15;;;;;;;;;;5095891;28;20202;-64
2022/03/15 04:05:36;;;;;;;20.00;15.45;;;;;;;;;;5096094;28;20248;-64
2022/03/15 04:08:03;;;;;;;18.20;15.00;;;;;;;;;;5096444;28;20268;-64
2022/03/15 04:10:31;;;;;;;25.73;14.85;;;;;;;;;;5095587;28;20199;-64
2022/03/15 04:12:58;;;;;;;22.45;16.27;;;;;;;;;;5095006;28;20191;-64
2022/03/15 04:15:26;;;;;;;20.45;15.63;;;;;;;;;;5096510;28;20194;-64
2022/03/15 04:17:53;;;;;;;23.50;16.40;;;;;;;;;;5095606;28;20198;-64
2022/03/15 04:20:20;;;;;;;19.88;15.02;;;;;;;;;;5095828;28;20215;-64
2022/03/15 04:22:49;;;;;;;19.98;15.32;;;;;;;;;;5095320;28;20237;-64
2022/03/15 04:25:16;;;;;;;24.80;15.35;;;;;;;;;;5095806;28;20193;-64
2022/03/15 04:27:43;;;;;;;21.58;15.73;;;;;;;;;;5095337;28;20196;-64
2022/03/15 04:30:12;;;;;;;23.45;14.70;;;;;;;;;;5095325;28;20205;-64
2022/03/15 04:32:39;;;;;;;19.80;15.38;;;;;;;;;;5095495;28;20220;-64
2022/03/15 04:35:07;;;;;;;18.67;14.60;;;;;;;;;;5095260;28;20207;-64
2022/03/15 04:37:34;;;;;;;19.92;14.45;;;;;;;;;;5095124;28;20195;-64
2022/03/15 04:40:03;;;;;;;22.77;14.77;;;;;;;;;;5095377;28;20196;-64
2022/03/15 04:42:30;;;;;;;20.52;15.32;;;;;;;;;;5095090;28;20238;-64
2022/03/15 04:44:57;;;;;;;19.80;14.63;;;;;;;;;;5095511;28;20549;-64
2022/03/15 04:47:24;;;;;;;21.35;15.60;;;;;;;;;;5094940;28;20203;-64
2022/03/15 04:49:51;;;;;;;21.00;16.48;;;;;;;;;;5095002;28;20680;-64
2022/03/15 04:52:18;;;;;;;21.30;15.98;;;;;;;;;;5094862;28;20192;-64
2022/03/15 04:54:46;;;;;;;21.17;15.57;;;;;;;;;;5095123;28;20228;-64
2022/03/15 04:57:14;;;;;;;22.92;14.82;;;;;;;;;;5095100;28;20196;-64
2022/03/15 04:59:41;;;;;;;19.27;14.93;;;;;;;;;;5095461;28;20199;-64
2022/03/15 05:02:09;;;;;;;20.45;14.48;;;;;;;;;;5094898;28;20230;-64
2022/03/15 05:04:36;;;;;;;22.00;16.02;;;;;;;;;;5094657;28;20231;-63
2022/03/15 05:07:03;;;;;;;20.95;15.20;;;;;;;;;;5094635;28;20206;-64
2022/03/15 05:09:31;;;;;;;22.15;15.35;;;;;;;;;;5095018;28;20192;-64
2022/03/15 05:11:58;;;;;;;21.15;15.20;;;;;;;;;;5094802;28;20199;-63
2022/03/15 05:14:27;;;;;;;23.98;15.35;;;;;;;;;;5094605;28;20197;-63
2022/03/15 05:16:54;;;;;;;24.92;15.45;;;;;;;;;;5094500;28;20205;-63
2022/03/15 05:19:21;;;;;;;19.42;15.15;;;;;;;;;;5094869;28;20217;-63
2022/03/15 05:21:49;;;;;;;18.98;14.63;;;;;;;;;;5094594;28;20215;-64
2022/03/15 05:24:16;;;;;;;22.48;16.05;;;;;;;;;;5094555;28;20296;-64
2022/03/15 05:26:43;;;;;;;20.55;15.40;;;;;;;;;;5094292;28;20286;-64
2022/03/15 05:29:10;;;;;;;21.13;15.60;;;;;;;;;;5094379;28;20205;-64
2022/03/15 05:31:39;;;;;;;26.63;16.45;;;;;;;;;;5094429;28;20200;-65
2022/03/15 05:34:06;;;;;;;25.15;17.00;;;;;;;;;;5093447;28;20196;-64
2022/03/15 05:36:33;;;;;;;22.92;15.50;;;;;;;;;;5094218;28;20205;-65
2022/03/15 05:39:00;;;;;;;22.52;14.80;;;;;;;;;;5094487;28;20201;-64
2022/03/15 05:41:28;;;;;;;21.23;15.75;;;;;;;;;;5094769;28;20226;-64
2022/03/15 05:43:55;;;;;;;18.27;15.10;;;;;;;;;;5093842;28;20559;-64
2022/03/15 05:46:22;;;;;;;19.63;14.82;;;;;;;;;;5094828;28;20245;-65
2022/03/15 05:48:52;;;;;;;21.30;15.25;;;;;;;;;;5093864;28;20229;-64
2022/03/15 05:51:19;;;;;;;25.50;15.40;;;;;;;;;;5094231;28;20195;-65
2022/03/15 05:53:46;;;;;;;24.48;16.75;;;;;;;;;;5093880;28;20239;-66
2022/03/15 05:56:13;;;;;;;24.38;14.95;;;;;;;;;;5094182;28;20200;-65
2022/03/15 05:58:42;;;;;;;22.52;15.85;;;;;;;;;;5093257;28;20198;-65
2022/03/15 06:01:09;;;;;;;24.92;15.30;;;;;;;;;;5093996;28;20222;-65
2022/03/15 06:03:36;;;;;;;25.80;14.52;;;;;;;;;;5093939;28;20228;-65
2022/03/15 06:06:06;;;;;;;22.20;15.02;;;;;;;;;;5093698;28;20290;-65
2022/03/15 06:08:33;;;;;;;23.65;15.93;;;;;;;;;;5093445;28;20660;-65
2022/03/15 06:11:02;;;;;;;24.33;14.82;;;;;;;;;;5093849;28;20327;-65
2022/03/15 06:13:29;;;;;;;22.42;17.17;;;;;;;;;;5094095;28;20194;-65
2022/03/15 06:15:56;;;;;;;20.00;14.68;;;;;;;;;;5093531;28;20195;-65
2022/03/15 06:18:23;;;;;;;22.50;14.95;;;;;;;;;;5093812;28;20200;-65
2022/03/15 06:20:51;;;;;;;20.90;15.43;;;;;;;;;;5093729;28;20215;-65
2022/03/15 06:23:21;;;;;;;19.38;13.80;;;;;;;;;;5093326;28;20196;-69
2022/03/15 06:25:48;;;;;;;22.25;15.55;;;;;;;;;;5093718;28;20188;-65
2022/03/15 06:28:15;;;;;;;25.67;15.10;;;;;;;;;;5093689;28;20199;-65
2022/03/15 06:30:42;;;;;;;22.40;15.43;;;;;;;;;;5093836;28;20204;-65
2022/03/15 06:33:10;;;;;;;18.60;14.82;;;;;;;;;;5093591;28;20553;-65
2022/03/15 06:35:37;;;;;;;22.17;15.90;;;;;;;;;;5093290;28;20231;-65
2022/03/15 06:38:04;;;;;;;25.50;14.05;;;;;;;;;;5097260;28;20282;-65
2022/03/15 06:40:33;;;;;;;20.02;15.60;;;;;;;;;;5097482;28;20196;-65
2022/03/15 06:43:01;;;;;;;22.60;15.98;;;;;;;;;;5097638;28;20192;-66
2022/03/15 06:45:28;;;;;;;29.05;14.75;;;;;;;;;;5097782;28;20202;-65
2022/03/15 06:47:55;;;;;;;21.60;16.13;;;;;;;;;;5097318;28;20196;-66
2022/03/15 06:50:23;;;;;;;23.35;16.52;;;;;;;;;;5097640;28;20195;-66
2022/03/15 06:52:50;;;;;;;19.70;14.43;;;;;;;;;;5097443;28;20244;-65
2022/03/15 06:55:17;;;;;;;20.25;14.18;;;;;;;;;;5098376;28;20227;-65
2022/03/15 06:57:46;;;;;;;20.88;15.23;;;;;;;;;;5097094;28;20282;-65
2022/03/15 07:00:14;;;;;;;21.83;14.80;;;;;;;;;;5097143;28;20672;-65
2022/03/15 07:02:44;;;;;;;20.60;14.20;;;;;;;;;;5097115;28;20272;-65
2022/03/15 07:05:20;;;;;;;19.48;14.68;;;;;;;;;;5096785;28;20203;-65
2022/03/15 07:07:53;;;;;;;20.77;15.38;;;;;;;;;;5097425;28;20182;-65
2022/03/15 07:10:20;;;;;;;22.30;15.35;;;;;;;;;;5097150;28;20196;-65
2022/03/15 07:12:50;;;;;;;21.35;14.45;;;;;;;;;;5096784;28;20203;-65
2022/03/15 07:15:17;;;;;;;20.20;14.15;;;;;;;;;;5096909;28;20205;-65
2022/03/15 07:17:59;;;;;;;23.40;16.55;;;;;;;;;;5096946;28;20201;-65
2022/03/15 07:20:30;;;;;;;18.58;14.93;;;;;;;;;;5097337;28;20189;-65
2022/03/15 07:22:57;;;;;;;20.42;14.50;;;;;;;;;;5096576;28;20684;-66
2022/03/15 07:25:25;;;;;;;23.75;15.18;;;;;;;;;;5096952;28;20285;-65
2022/03/15 07:27:57;;;;;;;19.10;14.00;;;;;;;;;;5097506;28;20596;-64
2022/03/15 07:30:27;;;;;;;17.63;13.63;;;;;;;;;;5096565;28;20195;-65
2022/03/15 07:32:59;;;;;;;20.33;13.73;;;;;;;;;;5096566;28;20677;-65
2022/03/15 07:35:27;;;;;;;26.98;14.02;;;;;;;;;;5096585;28;20183;-65
2022/03/15 07:37:56;;;;;;;23.63;14.50;;;;;;;;;;5096756;28;20197;-65
2022/03/15 07:40:23;;;;;;;18.73;13.45;;;;;;;;;;5096634;28;20191;-65
2022/03/15 07:42:51;;;;;;;19.83;14.52;;;;;;;;;;5096354;28;20305;-65
2022/03/15 07:45:20;;;;;;;23.10;15.60;;;;;;;;;;5096169;28;20196;-65
2022/03/15 07:47:48;;;;;;;17.13;13.20;;;;;;;;;;5096543;28;20201;-65
2022/03/15 07:50:19;;;;;;;25.73;14.93;;;;;;;;;;5096060;28;20286;-64
2022/03/15 07:52:47;;;;;;;24.48;15.48;;;;;;;;;;5096887;28;20191;-65
2022/03/15 07:55:15;;;;;;;23.05;14.95;;;;;;;;;;5096535;28;20560;-64
2022/03/15 07:57:42;;;;;;;28.25;19.73;;;;;;;;;;5096436;28;20320;-65
2022/03/15 08:00:10;;;;;;;20.60;12.80;;;;;;;;;;5095915;28;20203;-64
2022/03/15 08:02:41;;;;;;;21.25;14.13;;;;;;;;;;5096197;28;20228;-65
2022/03/15 08:05:08;;;;;;;21.73;13.77;;;;;;;;;;5095759;28;20215;-65
2022/03/15 08:07:36;;;;;;;15.63;12.07;;;;;;;;;;5096293;28;20245;-65
2022/03/15 08:10:04;;;;;;;19.90;12.20;;;;;;;;;;5095983;28;20200;-65
2022/03/15 08:12:31;;;;;;;20.83;13.93;;;;;;;;;;5096301;28;20660;-65
2022/03/15 08:14:58;;;;;;;18.73;13.80;;;;;;;;;;5095978;28;20205;-64
2022/03/15 08:17:26;;;;;;;18.45;14.15;;;;;;;;;;5096097;28;20191;-65
2022/03/15 08:19:57;;;;;;;20.77;13.07;;;;;;;;;;5096010;28;20199;-65
2022/03/15 08:22:25;;;;;;;19.73;13.52;;;;;;;;;;5096639;28;20208;-65
2022/03/15 08:24:56;;;;;;;20.77;14.00;;;;;;;;;;5095547;28;20257;-65
2022/03/15 08:27:23;;;;;;;16.63;12.63;;;;;;;;;;5095573;28;20197;-64
2022/03/15 08:29:50;;;;;;;17.55;11.55;;;;;;;;;;5095731;28;20565;-65
2022/03/15 08:32:17;;;;;;;14.18;11.95;;;;;;;;;;5095684;28;20234;-65
2022/03/15 08:34:45;;;;;;;22.30;13.55;;;;;;;;;;5095098;28;20674;-65
2022/03/15 08:37:14;;;;;;;22.13;13.48;;;;;;;;;;5095692;28;20658;-65
2022/03/15 08:39:43;;;;;;;16.67;11.95;;;;;;;;;;5095340;28;20220;-64
2022/03/15 08:42:10;;;;;;;19.02;12.60;;;;;;;;;;5095499;28;20309;-65
2022/03/15 08:44:38;;;;;;;20.33;12.50;;;;;;;;;;5095217;28;20291;-64
2022/03/15 08:47:05;;;;;;;16.58;13.18;;;;;;;;;;5095416;28;20614;-65
2022/03/15 08:49:32;;;;;;;24.65;14.30;;;;;;;;;;5095608;28;20670;-65
2022/03/15 08:52:02;;;;;;;18.27;14.00;;;;;;;;;;5094913;28;20204;-65
2022/03/15 08:54:31;;;;;;;17.08;12.95;;;;;;;;;;5095073;28;20224;-65
2022/03/15 08:56:58;;;;;;;19.73;11.65;;;;;;;;;;5095405;28;20246;-65
2022/03/15 08:59:25;;;;;;;17.70;12.55;;;;;;;;;;5094664;28;20201;-66
2022/03/15 09:01:53;;;;;;;18.20;12.38;;;;;;;;;;5095131;28;20225;-65
2022/03/15 09:04:22;;;;;;;16.45;11.23;;;;;;;;;;5094874;28;20194;-65
2022/03/15 09:06:51;;;;;;;18.35;12.02;;;;;;;;;;5094881;28;20196;-65
2022/03/15 09:09:21;;;;;;;15.00;11.57;;;;;;;;;;5095107;28;20202;-65
2022/03/15 09:11:50;;;;;;;15.60;12.32;;;;;;;;;;5094791;28;20200;-65
2022/03/15 09:14:17;;;;;;;16.38;12.38;;;;;;;;;;5094779;28;20559;-65
2022/03/15 09:16:47;;;;;;;17.88;12.05;;;;;;;;;;5094646;28;20221;-65
2022/03/15 09:19:15;;;;;;;17.10;13.13;;;;;;;;;;5094931;28;20245;-65
2022/03/15 09:21:43;;;;;;;16.65;11.63;;;;;;;;;;5094351;28;20290;-65
2022/03/15 09:24:11;;;;;;;16.08;12.88;;;;;;;;;;5094979;28;20579;-65
2022/03/15 09:26:45;;;;;;;16.33;11.88;;;;;;;;;;5094144;28;20291;-65
2022/03/15 09:29:15;;;;;;;16.80;12.02;;;;;;;;;;5094601;28;20183;-65
2022/03/15 09:31:42;;;;;;;15.65;11.65;;;;;;;;;;5094078;28;20291;-65
2022/03/15 09:34:09;;;;;;;20.05;13.00;;;;;;;;;;5094452;28;20201;-65
2022/03/15 09:36:36;;;;;;;15.88;11.95;;;;;;;;;;5094444;28;20196;-65
2022/03/15 09:39:07;;;;;;;17.63;11.90;;;;;;;;;;5094299;28;20200;-65
2022/03/15 09:41:38;;;;;;;18.20;11.40;;;;;;;;;;5094056;28;20616;-65
2022/03/15 09:44:07;;;;;;;13.13;10.43;;;;;;;;;;5094309;28;20193;-65
2022/03/15 09:46:38;;;;;;;15.73;11.40;;;;;;;;;;5094100;28;20200;-65
2022/03/15 09:49:07;;;;;;;16.13;12.67;;;;;;;;;;5094667;28;20196;-66
2022/03/15 09:51:35;;;;;;;16.95;10.82;;;;;;;;;;5093764;28;20527;-65
2022/03/15 09:54:03;;;;;;;16.08;11.55;;;;;;;;;;5093879;28;20710;-65
2022/03/15 09:56:38;;;;;;;13.18;10.77;;;;;;;;;;5093629;28;20733;-64
2022/03/15 09:59:06;;;;;;;15.13;11.00;;;;;;;;;;5094035;28;20610;-66
2022/03/15 10:01:33;;;;;;;13.20;10.52;;;;;;;;;;5093973;28;20553;-65
2022/03/15 10:04:03;;;;;;;18.77;9.93;;;;;;;;;;5093950;28;20555;-65
2022/03/15 10:06:30;;;;;;;15.73;11.18;;;;;;;;;;5093856;28;20223;-66
2022/03/15 10:08:58;;;;;;;19.58;11.75;;;;;;;;;;5093576;28;20289;-65
2022/03/15 10:11:26;;;;;;;18.67;12.30;;;;;;;;;;5092471;28;20252;-65
2022/03/15 10:13:53;;;;;;;12.80;10.70;;;;;;;;;;5093795;28;20284;-65
2022/03/15 10:16:21;;;;;;;14.75;11.18;;;;;;;;;;5093996;28;20193;-65
2022/03/15 10:18:55;;;;;;;17.87;10.83;;;;;;;;;;5093940;28;20197;-66
2022/03/15 10:21:25;;;;;;;13.40;10.03;;;;;;;;;;5093574;28;20467;-65
2022/03/15 10:23:54;;;;;;;17.83;11.20;;;;;;;;;;5093985;28;20483;-65
2022/03/15 10:26:25;;;;;;;12.80;10.33;;;;;;;;;;5093771;28;20473;-65
2022/03/15 10:28:54;;;;;;;13.43;10.20;;;;;;;;;;5093623;28;20794;-65
2022/03/15 10:31:24;;;;;;;14.45;10.23;;;;;;;;;;5093316;28;20442;-65
2022/03/15 10:33:51;;;;;;;15.23;10.63;;;;;;;;;;5093318;28;20258;-65
2022/03/15 10:36:19;;;;;;;12.05;10.82;;;;;;;;;;5093665;28;20443;-65
2022/03/15 10:38:48;;;;;;;12.43;11.00;;;;;;;;;;5093201;28;20225;-65
2022/03/15 10:41:16;;;;;;;13.00;10.40;;;;;;;;;;5093120;28;20445;-65
2022/03/15 10:43:44;;;;;;;16.03;11.30;;;;;;;;;;5093378;28;20463;-65
2022/03/15 10:46:15;;;;;;;14.53;10.60;;;;;;;;;;5093395;28;20439;-65
2022/03/15 10:48:42;;;;;;;12.57;9.93;;;;;;;;;;5093351;28;20538;-65
2022/03/15 10:51:14;;;;;;;14.53;10.63;;;;;;;;;;5093251;28;20450;-65
2022/03/15 10:53:44;;;;;;;19.50;10.50;;;;;;;;;;5093496;28;20967;-64
2022/03/15 10:56:13;;;;;;;11.00;9.57;;;;;;;;;;5093281;28;20447;-65
2022/03/15 10:58:51;;;;;;;13.07;10.43;;;;;;;;;;5093326;28;20446;-65
2022/03/15 11:01:19;;;;;;;13.40;10.47;;;;;;;;;;5093634;28;20867;-65
2022/03/15 11:03:53;;;;;;;14.83;10.13;;;;;;;;;;5093277;28;20471;-64
2022/03/15 11:06:30;;;;;;;13.60;9.83;;;;;;;;;;5093096;28;20443;-64
2022/03/15 11:08:58;;;;;;;21.00;9.60;;;;;;;;;;5093306;28;20809;-65
2022/03/15 11:11:27;;;;;;;15.77;10.27;;;;;;;;;;5093007;28;20427;-65
2022/03/15 11:13:59;;;;;;;13.20;10.63;;;;;;;;;;5092881;28;20444;-64
2022/03/15 11:16:27;;;;;;;14.03;10.33;;;;;;;;;;5093222;28;20446;-64
2022/03/15 11:18:56;;;;;;;16.00;10.63;;;;;;;;;;5092849;28;20440;-65
2022/03/15 11:21:23;;;;;;;16.93;11.47;;;;;;;;;;5092867;28;20439;-66
2022/03/15 11:23:51;;;;;;;12.40;10.07;;;;;;;;;;5096460;28;20495;-64
2022/03/15 11:26:23;;;;;;;23.53;11.43;;;;;;;;;;5096514;28;20959;-64
2022/03/15 11:28:52;;;;;;;12.63;10.33;;;;;;;;;;5097210;28;20514;-65
2022/03/15 11:31:19;;;;;;;13.90;10.80;;;;;;;;;;5096490;28;20530;-65
2022/03/15 11:33:48;;;;;;;16.60;11.80;;;;;;;;;;5096425;28;20447;-64
2022/03/15 11:36:15;;;;;;;14.00;10.50;;;;;;;;;;5096307;28;20499;-65
2022/03/15 11:38:42;;;;;;;15.00;10.70;;;;;;;;;;5096909;28;20910;-64
2022/03/15 11:41:10;;;;;;;11.57;10.47;;;;;;;;;;5096683;28;20443;-65
2022/03/15 11:43:40;;;;;;;21.23;11.03;;;;;;;;;;5096176;28;20471;-65
2022/03/15 11:46:13;;;;;;;13.47;10.00;;;;;;;;;;5096667;28;20448;-65
2022/03/15 11:48:45;;;;;;;17.63;10.87;;;;;;;;;;5096548;28;20431;-64
2022/03/15 11:51:20;;;;;;;14.90;10.30;;;;;;;;;;5096847;28;20861;-65
2022/03/15 11:53:51;;;;;;;22.53;11.10;;;;;;;;;;5096414;28;20455;-65
2022/03/15 11:56:22;;;;;;;11.00;9.47;;;;;;;;;;5097068;28;20427;-65
2022/03/15 11:58:55;;;;;;;15.93;9.80;;;;;;;;;;5095929;28;20424;-65
2022/03/15 12:01:33;;;;;;;12.23;8.90;;;;;;;;;;5096212;28;20529;-64
2022/03/15 12:04:02;;;;;;;15.57;9.97;;;;;;;;;;5096221;28;20555;-65
2022/03/15 12:06:30;;;;;;;14.43;9.30;;;;;;;;;;5096120;28;20436;-65
2022/03/15 12:08:59;;;;;;;18.37;9.87;;;;;;;;;;5096054;28;20454;-65
2022/03/15 12:11:27;;;;;;;17.20;9.67;;;;;;;;;;5096135;28;20466;-65
2022/03/15 12:13:59;;;;;;;10.80;8.53;;;;;;;;;;5095654;28;20470;-65
2022/03/15 12:16:34;;;;;;;14.97;7.50;;;;;;;;;;5095863;28;20433;-65
2022/03/15 12:19:06;;;;;;;15.80;9.90;;;;;;;;;;5095854;28;20455;-64
2022/03/15 12:21:34;;;;;;;12.13;8.47;;;;;;;;;;5096028;28;20898;-64
2022/03/15 12:24:01;;;;;;;14.60;7.67;;;;;;;;;;5095267;28;20507;-64
2022/03/15 12:26:29;;;;;;;14.57;8.13;;;;;;;;;;5095611;28;20953;-65
2022/03/15 12:28:57;;;;;;;12.03;8.03;;;;;;;;;;5095634;28;20440;-64
2022/03/15 12:31:35;;;;;;;13.90;8.80;;;;;;;;;;5096107;28;20522;-65
2022/03/15 12:34:04;;;;;;;13.90;8.77;;;;;;;;;;5094269;28;20459;-64
2022/03/15 12:36:38;;;;;;;18.40;8.63;;;;;;;;;;5095506;28;20526;-66
2022/03/15 12:39:10;;;;;;;11.70;7.97;;;;;;;;;;5095120;28;20936;-64
2022/03/15 12:41:37;;;;;;;14.27;7.90;;;;;;;;;;5095493;28;20444;-65
2022/03/15 12:44:05;;;;;;;14.40;9.00;;;;;;;;;;5094898;28;20474;-65
2022/03/15 12:46:32;;;;;;;12.53;8.60;;;;;;;;;;5095312;28;20534;-65
2022/03/15 12:49:07;;;;;;;11.77;6.90;;;;;;;;;;5095389;28;20523;-65
2022/03/15 12:51:38;;;;;;;11.50;7.53;;;;;;;;;;5094881;28;20432;-65
2022/03/15 12:54:07;;;;;;;11.87;7.60;;;;;;;;;;5094453;28;20477;-65
2022/03/15 12:56:35;;;;;;;13.10;7.97;;;;;;;;;;5094983;28;20796;-65
2022/03/15 12:59:02;;;;;;;10.07;7.10;;;;;;;;;;5094734;28;20531;-65
2022/03/15 13:01:29;;;;;;;14.03;8.47;;;;;;;;;;5094716;28;20443;-65
2022/03/15 13:03:58;;;;;;;8.03;7.23;;;;;;;;;;5094706;28;20567;-65
2022/03/15 13:06:26;;;;;;;7.87;7.03;;;;;;;;;;5094573;28;20531;-65
2022/03/15 13:08:55;;;;;;;10.70;6.57;;;;;;;;;;5094938;28;20436;-65
2022/03/15 13:11:24;;;;;;;11.53;6.80;;;;;;;;;;5094528;28;20436;-65
2022/03/15 13:13:52;;;;;;;10.20;6.80;;;;;;;;;;5094682;28;20478;-65
2022/03/15 13:16:25;;;;;;;11.93;7.53;;;;;;;;;;5094697;28;20533;-65
2022/03/15 13:18:52;;;;;;;13.33;6.70;;;;;;;;;;5094805;28;20838;-65
2022/03/15 13:21:20;;;;;;;9.83;6.37;;;;;;;;;;5094257;28;20444;-64
2022/03/15 13:23:49;;;;;;;9.27;6.33;;;;;;;;;;5094822;28;20487;-65
2022/03/15 13:26:19;;;;;;;10.40;7.13;;;;;;;;;;5094274;28;20447;-65
2022/03/15 13:28:47;;;;;;;10.27;6.67;;;;;;;;;;5094672;28;20456;-65
2022/03/15 13:31:15;;;;;;;13.60;6.90;;;;;;;;;;5094514;28;20535;-65
2022/03/15 13:33:44;;;;;;;9.53;6.80;;;;;;;;;;5094293;28;20435;-65
2022/03/15 13:36:13;;;;;;;12.47;6.40;;;;;;;;;;5093947;28;20443;-64
2022/03/15 13:38:44;;;;;;;10.07;6.77;;;;;;;;;;5094238;28;20528;-65
2022/03/15 13:41:14;;;;;;;10.73;6.70;;;;;;;;;;5093991;28;20565;-65
2022/03/15 13:43:43;;;;;;;12.43;6.87;;;;;;;;;;5093690;28;20483;-64
2022/03/15 13:46:12;;;;;;;11.43;6.50;;;;;;;;;;5093804;28;20448;-64
2022/03/15 13:48:41;;;;;;;12.63;8.00;;;;;;;;;;5094083;28;20483;-64
2022/03/15 13:51:10;;;;;;;8.47;6.87;;;;;;;;;;5093991;28;20451;-65
2022/03/15 13:53:38;;;;;;;9.67;6.43;;;;;;;;;;5093772;28;20487;-65
2022/03/15 13:56:09;;;;;;;10.43;7.43;;;;;;;;;;5093488;28;20448;-65
2022/03/15 13:58:38;;;;;;;7.93;6.57;;;;;;;;;;5093809;28;20442;-65
2022/03/15 14:01:06;;;;;;;10.40;7.20;;;;;;;;;;5093896;28;20458;-65
2022/03/15 14:03:34;;;;;;;11.70;8.87;;;;;;;;;;5093647;28;20563;-65
2022/03/15 14:06:01;;;;;;;9.53;7.10;;;;;;;;;;5093817;28;20432;-65
2022/03/15 14:08:29;;;;;;;11.03;6.23;;;;;;;;;;5093689;28;20804;-65
2022/03/15 14:10:56;;;;;;;7.87;6.53;;;;;;;;;;5093556;28;20451;-65
2022/03/15 14:13:29;;;;;;;11.20;7.40;;;;;;;;;;5093397;28;20476;-65
2022/03/15 14:16:08;;;;;;;10.30;6.50;;;;;;;;;;5093641;28;20425;-64
2022/03/15 14:18:38;;;;;;;19.43;7.23;;;;;;;;;;5093963;28;20482;-65
2022/03/15 14:21:11;;;;;;;11.23;7.30;;;;;;;;;;5093911;28;20443;-65
2022/03/15 14:23:40;;;;;;;13.80;6.67;;;;;;;;;;5093178;28;20702;-65
2022/03/15 14:26:08;;;;;;;14.03;6.80;;;;;;;;;;5093490;28;20525;-65
2022/03/15 14:28:38;;;;;;;8.17;7.00;;;;;;;;;;5093004;28;20441;-65